sensor_id;sensor_type;location;lat;lon;timestamp;temperature;humidity
18797;DHT22;9526;52.612;13.300;2024-01-06T00:00:40;1.80;99.90
18797;DHT22;9526;52.612;13.300;2024-01-06T00:03:04;1.80;99.90
18797;DHT22;9526;52.612;13.300;2024-01-06T00:05:28;1.90;99.90
18797;DHT22;9526;52.612;13.300;2024-01-06T00:07:51;1.80;99.90
18797;DHT22;9526;52.612;13.300;2024-01-06T00:10:15;1.80;99.90
18797;DHT22;9526;52.612;13.300;2024-01-06T00:12:39;1.80;99.90
18797;DHT22;9526;52.612;13.300;2024-01-06T00:15:06;1.80;99.90
18797;DHT22;9526;52.612;13.300;2024-01-06T00:17:30;1.80;99.90
18797;DHT22;9526;52.612;13.300;2024-01-06T00:19:54;1.80;99.90
18797;DHT22;9526;52.612;13.300;2024-01-06T00:22:18;1.80;99.90
18797;DHT22;9526;52.612;13.300;2024-01-06T00:24:41;1.80;99.90
18797;DHT22;9526;52.612;13.300;2024-01-06T00:27:05;1.80;99.90
18797;DHT22;9526;52.612;13.300;2024-01-06T00:29:29;1.80;99.90
18797;DHT22;9526;52.612;13.300;2024-01-06T00:31:54;1.80;99.90
18797;DHT22;9526;52.612;13.300;2024-01-06T00:34:17;1.80;99.90
18797;DHT22;9526;52.612;13.300;2024-01-06T00:36:41;1.80;99.90
18797;DHT22;9526;52.612;13.300;2024-01-06T00:39:05;1.80;99.90
18797;DHT22;9526;52.612;13.300;2024-01-06T00:41:29;1.80;99.90
18797;DHT22;9526;52.612;13.300;2024-01-06T00:43:52;1.80;99.90
18797;DHT22;9526;52.612;13.300;2024-01-06T00:46:16;1.80;99.90
18797;DHT22;9526;52.612;13.300;2024-01-06T00:48:42;1.80;99.90
18797;DHT22;9526;52.612;13.300;2024-01-06T00:51:06;1.70;99.90
18797;DHT22;9526;52.612;13.300;2024-01-06T00:53:29;1.80;99.90
18797;DHT22;9526;52.612;13.300;2024-01-06T00:55:53;1.80;99.90
18797;DHT22;9526;52.612;13.300;2024-01-06T00:58:17;1.80;99.90
18797;DHT22;9526;52.612;13.300;2024-01-06T01:00:40;1.80;99.90
18797;DHT22;9526;52.612;13.300;2024-01-06T01:03:04;1.80;99.90
18797;DHT22;9526;52.612;13.300;2024-01-06T01:05:29;1.80;99.90
18797;DHT22;9526;52.612;13.300;2024-01-06T01:07:53;1.80;99.90
18797;DHT22;9526;52.612;13.300;2024-01-06T01:10:17;1.80;99.90
18797;DHT22;9526;52.612;13.300;2024-01-06T01:12:40;1.80;99.90
18797;DHT22;9526;52.612;13.300;2024-01-06T01:15:05;1.80;99.90
18797;DHT22;9526;52.612;13.300;2024-01-06T01:17:29;1.80;99.90
18797;DHT22;9526;52.612;13.300;2024-01-06T01:19:53;1.70;99.90
18797;DHT22;9526;52.612;13.300;2024-01-06T01:22:18;1.80;99.90
18797;DHT22;9526;52.612;13.300;2024-01-06T01:24:42;1.80;99.90
18797;DHT22;9526;52.612;13.300;2024-01-06T01:27:06;1.80;99.90
18797;DHT22;9526;52.612;13.300;2024-01-06T01:29:30;1.80;99.90
18797;DHT22;9526;52.612;13.300;2024-01-06T01:31:53;1.80;99.90
18797;DHT22;9526;52.612;13.300;2024-01-06T01:34:17;1.80;99.90
18797;DHT22;9526;52.612;13.300;2024-01-06T01:36:41;1.80;99.90
18797;DHT22;9526;52.612;13.300;2024-01-06T01:39:06;1.70;99.90
18797;DHT22;9526;52.612;13.300;2024-01-06T01:41:30;1.70;99.90
18797;DHT22;9526;52.612;13.300;2024-01-06T01:43:54;1.70;99.90
18797;DHT22;9526;52.612;13.300;2024-01-06T01:46:20;1.70;99.90
18797;DHT22;9526;52.612;13.300;2024-01-06T01:48:44;1.70;99.90
18797;DHT22;9526;52.612;13.300;2024-01-06T01:51:09;1.70;99.90
18797;DHT22;9526;52.612;13.300;2024-01-06T01:53:33;1.70;99.90
18797;DHT22;9526;52.612;13.300;2024-01-06T01:55:58;1.70;99.90
18797;DHT22;9526;52.612;13.300;2024-01-06T01:58:22;1.70;99.90
18797;DHT22;9526;52.612;13.300;2024-01-06T02:00:46;1.70;99.90
18797;DHT22;9526;52.612;13.300;2024-01-06T02:03:11;1.70;99.90
18797;DHT22;9526;52.612;13.300;2024-01-06T02:05:37;1.70;99.90
18797;DHT22;9526;52.612;13.300;2024-01-06T02:08:01;1.70;99.90
18797;DHT22;9526;52.612;13.300;2024-01-06T02:10:24;1.70;99.90
18797;DHT22;9526;52.612;13.300;2024-01-06T02:12:49;1.70;99.90
18797;DHT22;9526;52.612;13.300;2024-01-06T02:15:14;1.70;99.90
18797;DHT22;9526;52.612;13.300;2024-01-06T02:17:38;1.70;99.90
18797;DHT22;9526;52.612;13.300;2024-01-06T02:20:02;1.70;99.90
18797;DHT22;9526;52.612;13.300;2024-01-06T02:22:29;1.70;99.90
18797;DHT22;9526;52.612;13.300;2024-01-06T02:24:53;1.70;99.90
18797;DHT22;9526;52.612;13.300;2024-01-06T02:27:17;1.70;99.90
18797;DHT22;9526;52.612;13.300;2024-01-06T02:29:40;1.70;99.90
18797;DHT22;9526;52.612;13.300;2024-01-06T02:32:05;1.70;99.90
18797;DHT22;9526;52.612;13.300;2024-01-06T02:34:29;1.70;99.90
18797;DHT22;9526;52.612;13.300;2024-01-06T02:36:53;1.70;99.90
18797;DHT22;9526;52.612;13.300;2024-01-06T02:39:18;1.70;99.90
18797;DHT22;9526;52.612;13.300;2024-01-06T02:41:41;1.70;99.90
18797;DHT22;9526;52.612;13.300;2024-01-06T02:44:05;1.70;99.90
18797;DHT22;9526;52.612;13.300;2024-01-06T02:46:34;1.70;99.90
18797;DHT22;9526;52.612;13.300;2024-01-06T02:48:58;1.70;99.90
18797;DHT22;9526;52.612;13.300;2024-01-06T02:51:22;1.80;99.90
18797;DHT22;9526;52.612;13.300;2024-01-06T02:53:45;1.70;99.90
18797;DHT22;9526;52.612;13.300;2024-01-06T02:56:14;1.70;99.90
18797;DHT22;9526;52.612;13.300;2024-01-06T02:58:37;1.80;99.90
18797;DHT22;9526;52.612;13.300;2024-01-06T03:01:01;1.80;99.90
18797;DHT22;9526;52.612;13.300;2024-01-06T03:03:25;1.80;99.90
18797;DHT22;9526;52.612;13.300;2024-01-06T03:05:49;1.90;99.90
18797;DHT22;9526;52.612;13.300;2024-01-06T03:08:13;1.80;99.90
18797;DHT22;9526;52.612;13.300;2024-01-06T03:10:36;1.80;99.90
18797;DHT22;9526;52.612;13.300;2024-01-06T03:13:01;1.80;99.90
18797;DHT22;9526;52.612;13.300;2024-01-06T03:15:25;1.80;99.90
18797;DHT22;9526;52.612;13.300;2024-01-06T03:17:49;1.70;99.90
18797;DHT22;9526;52.612;13.300;2024-01-06T03:20:13;1.80;99.90
18797;DHT22;9526;52.612;13.300;2024-01-06T03:22:36;1.70;99.90
18797;DHT22;9526;52.612;13.300;2024-01-06T03:25:00;1.80;99.90
18797;DHT22;9526;52.612;13.300;2024-01-06T03:27:24;1.80;99.90
18797;DHT22;9526;52.612;13.300;2024-01-06T03:29:50;1.80;99.90
18797;DHT22;9526;52.612;13.300;2024-01-06T03:32:13;1.80;99.90
18797;DHT22;9526;52.612;13.300;2024-01-06T03:34:37;1.80;99.90
18797;DHT22;9526;52.612;13.300;2024-01-06T03:37:01;1.70;99.90
18797;DHT22;9526;52.612;13.300;2024-01-06T03:39:24;1.80;99.90
18797;DHT22;9526;52.612;13.300;2024-01-06T03:41:48;1.70;99.90
18797;DHT22;9526;52.612;13.300;2024-01-06T03:44:12;1.70;99.90
18797;DHT22;9526;52.612;13.300;2024-01-06T03:46:37;1.80;99.90
18797;DHT22;9526;52.612;13.300;2024-01-06T03:49:01;1.70;99.90
18797;DHT22;9526;52.612;13.300;2024-01-06T03:51:25;1.80;99.90
18797;DHT22;9526;52.612;13.300;2024-01-06T03:53:49;1.80;99.90
18797;DHT22;9526;52.612;13.300;2024-01-06T03:56:13;1.70;99.90
18797;DHT22;9526;52.612;13.300;2024-01-06T03:58:37;1.70;99.90
18797;DHT22;9526;52.612;13.300;2024-01-06T04:01:00;1.80;99.90
18797;DHT22;9526;52.612;13.300;2024-01-06T04:03:26;1.80;99.90
18797;DHT22;9526;52.612;13.300;2024-01-06T04:05:50;1.80;99.90
18797;DHT22;9526;52.612;13.300;2024-01-06T04:08:13;1.80;99.90
18797;DHT22;9526;52.612;13.300;2024-01-06T04:10:37;1.80;99.90
18797;DHT22;9526;52.612;13.300;2024-01-06T04:13:01;1.80;99.90
18797;DHT22;9526;52.612;13.300;2024-01-06T04:15:25;1.80;99.90
18797;DHT22;9526;52.612;13.300;2024-01-06T04:17:49;1.70;99.90
18797;DHT22;9526;52.612;13.300;2024-01-06T04:20:16;1.70;99.90
18797;DHT22;9526;52.612;13.300;2024-01-06T04:22:39;1.70;99.90
18797;DHT22;9526;52.612;13.300;2024-01-06T04:25:04;1.70;99.90
18797;DHT22;9526;52.612;13.300;2024-01-06T04:27:28;1.70;99.90
18797;DHT22;9526;52.612;13.300;2024-01-06T04:29:51;1.70;99.90
18797;DHT22;9526;52.612;13.300;2024-01-06T04:32:15;1.70;99.90
18797;DHT22;9526;52.612;13.300;2024-01-06T04:34:39;1.70;99.90
18797;DHT22;9526;52.612;13.300;2024-01-06T04:37:05;1.60;99.90
18797;DHT22;9526;52.612;13.300;2024-01-06T04:39:29;1.60;99.90
18797;DHT22;9526;52.612;13.300;2024-01-06T04:41:55;1.70;99.90
18797;DHT22;9526;52.612;13.300;2024-01-06T04:44:20;1.70;99.90
18797;DHT22;9526;52.612;13.300;2024-01-06T04:46:45;1.70;99.90
18797;DHT22;9526;52.612;13.300;2024-01-06T04:49:09;1.70;99.90
18797;DHT22;9526;52.612;13.300;2024-01-06T04:51:33;1.60;99.90
18797;DHT22;9526;52.612;13.300;2024-01-06T04:53:58;1.60;99.90
18797;DHT22;9526;52.612;13.300;2024-01-06T04:56:22;1.60;99.90
18797;DHT22;9526;52.612;13.300;2024-01-06T04:58:46;1.60;99.90
18797;DHT22;9526;52.612;13.300;2024-01-06T05:01:09;1.50;99.90
18797;DHT22;9526;52.612;13.300;2024-01-06T05:03:34;1.60;99.90
18797;DHT22;9526;52.612;13.300;2024-01-06T05:05:57;1.60;99.90
18797;DHT22;9526;52.612;13.300;2024-01-06T05:08:20;1.60;99.90
18797;DHT22;9526;52.612;13.300;2024-01-06T05:10:46;1.50;99.90
18797;DHT22;9526;52.612;13.300;2024-01-06T05:13:11;1.50;99.90
18797;DHT22;9526;52.612;13.300;2024-01-06T05:15:35;1.50;99.90
18797;DHT22;9526;52.612;13.300;2024-01-06T05:17:58;1.50;99.90
18797;DHT22;9526;52.612;13.300;2024-01-06T05:20:22;1.50;99.90
18797;DHT22;9526;52.612;13.300;2024-01-06T05:22:46;1.50;99.90
18797;DHT22;9526;52.612;13.300;2024-01-06T05:25:10;1.50;99.90
18797;DHT22;9526;52.612;13.300;2024-01-06T05:27:35;1.50;99.90
18797;DHT22;9526;52.612;13.300;2024-01-06T05:29:58;1.40;99.90
18797;DHT22;9526;52.612;13.300;2024-01-06T05:32:22;1.40;99.90
18797;DHT22;9526;52.612;13.300;2024-01-06T05:34:46;1.40;99.90
18797;DHT22;9526;52.612;13.300;2024-01-06T05:37:10;1.50;99.90
18797;DHT22;9526;52.612;13.300;2024-01-06T05:39:33;1.40;99.90
18797;DHT22;9526;52.612;13.300;2024-01-06T05:41:58;1.40;99.90
18797;DHT22;9526;52.612;13.300;2024-01-06T05:44:23;1.40;99.90
18797;DHT22;9526;52.612;13.300;2024-01-06T05:46:47;1.40;99.90
18797;DHT22;9526;52.612;13.300;2024-01-06T05:49:10;1.40;99.90
18797;DHT22;9526;52.612;13.300;2024-01-06T05:51:34;1.50;99.90
18797;DHT22;9526;52.612;13.300;2024-01-06T05:53:58;1.50;99.90
18797;DHT22;9526;52.612;13.300;2024-01-06T05:56:25;1.50;99.90
18797;DHT22;9526;52.612;13.300;2024-01-06T05:58:49;1.50;99.90
18797;DHT22;9526;52.612;13.300;2024-01-06T06:01:14;1.50;99.90
18797;DHT22;9526;52.612;13.300;2024-01-06T06:03:39;1.50;99.90
18797;DHT22;9526;52.612;13.300;2024-01-06T06:06:04;1.40;99.90
18797;DHT22;9526;52.612;13.300;2024-01-06T06:08:27;1.40;99.90
18797;DHT22;9526;52.612;13.300;2024-01-06T06:10:51;1.40;99.90
18797;DHT22;9526;52.612;13.300;2024-01-06T06:13:23;1.40;99.90
18797;DHT22;9526;52.612;13.300;2024-01-06T06:15:47;1.40;99.90
18797;DHT22;9526;52.612;13.300;2024-01-06T06:18:12;1.30;99.90
18797;DHT22;9526;52.612;13.300;2024-01-06T06:20:36;1.40;99.90
18797;DHT22;9526;52.612;13.300;2024-01-06T06:23:00;1.40;99.90
18797;DHT22;9526;52.612;13.300;2024-01-06T06:25:24;1.30;99.90
18797;DHT22;9526;52.612;13.300;2024-01-06T06:27:48;1.30;99.90
18797;DHT22;9526;52.612;13.300;2024-01-06T06:30:12;1.30;99.90
18797;DHT22;9526;52.612;13.300;2024-01-06T06:32:36;1.40;99.90
18797;DHT22;9526;52.612;13.300;2024-01-06T06:35:02;1.40;99.90
18797;DHT22;9526;52.612;13.300;2024-01-06T06:37:26;1.40;99.90
18797;DHT22;9526;52.612;13.300;2024-01-06T06:39:49;1.30;99.90
18797;DHT22;9526;52.612;13.300;2024-01-06T06:42:13;1.30;99.90
18797;DHT22;9526;52.612;13.300;2024-01-06T06:44:37;1.30;99.90
18797;DHT22;9526;52.612;13.300;2024-01-06T06:47:01;1.40;99.90
18797;DHT22;9526;52.612;13.300;2024-01-06T06:49:24;1.30;99.90
18797;DHT22;9526;52.612;13.300;2024-01-06T06:51:49;1.20;99.90
18797;DHT22;9526;52.612;13.300;2024-01-06T06:54:13;1.20;99.90
18797;DHT22;9526;52.612;13.300;2024-01-06T06:56:37;1.20;99.90
18797;DHT22;9526;52.612;13.300;2024-01-06T06:59:01;1.20;99.90
18797;DHT22;9526;52.612;13.300;2024-01-06T07:01:25;1.20;99.90
18797;DHT22;9526;52.612;13.300;2024-01-06T07:03:48;1.20;99.90
18797;DHT22;9526;52.612;13.300;2024-01-06T07:06:12;1.20;99.90
18797;DHT22;9526;52.612;13.300;2024-01-06T07:08:38;1.30;99.90
18797;DHT22;9526;52.612;13.300;2024-01-06T07:11:01;1.20;99.90
18797;DHT22;9526;52.612;13.300;2024-01-06T07:13:25;1.20;99.90
18797;DHT22;9526;52.612;13.300;2024-01-06T07:15:49;1.20;99.90
18797;DHT22;9526;52.612;13.300;2024-01-06T07:18:14;1.30;99.90
18797;DHT22;9526;52.612;13.300;2024-01-06T07:20:38;1.30;99.90
18797;DHT22;9526;52.612;13.300;2024-01-06T07:23:02;1.30;99.90
18797;DHT22;9526;52.612;13.300;2024-01-06T07:25:27;1.20;99.90
18797;DHT22;9526;52.612;13.300;2024-01-06T07:27:52;1.30;99.90
18797;DHT22;9526;52.612;13.300;2024-01-06T07:30:17;1.20;99.90
18797;DHT22;9526;52.612;13.300;2024-01-06T07:32:40;1.20;99.90
18797;DHT22;9526;52.612;13.300;2024-01-06T07:35:04;1.30;99.90
18797;DHT22;9526;52.612;13.300;2024-01-06T07:37:29;1.20;99.90
18797;DHT22;9526;52.612;13.300;2024-01-06T07:39:53;1.20;99.90
18797;DHT22;9526;52.612;13.300;2024-01-06T07:42:18;1.10;99.90
18797;DHT22;9526;52.612;13.300;2024-01-06T07:44:42;1.10;99.90
18797;DHT22;9526;52.612;13.300;2024-01-06T07:47:06;1.00;99.90
18797;DHT22;9526;52.612;13.300;2024-01-06T07:49:30;1.10;99.90
18797;DHT22;9526;52.612;13.300;2024-01-06T07:51:54;1.00;99.90
18797;DHT22;9526;52.612;13.300;2024-01-06T07:54:17;1.00;99.90
18797;DHT22;9526;52.612;13.300;2024-01-06T07:56:41;1.00;99.90
18797;DHT22;9526;52.612;13.300;2024-01-06T07:59:07;1.00;99.90
18797;DHT22;9526;52.612;13.300;2024-01-06T08:01:30;0.90;99.90
18797;DHT22;9526;52.612;13.300;2024-01-06T08:03:54;1.00;99.90
18797;DHT22;9526;52.612;13.300;2024-01-06T08:06:18;1.00;99.90
18797;DHT22;9526;52.612;13.300;2024-01-06T08:08:42;0.90;99.90
18797;DHT22;9526;52.612;13.300;2024-01-06T08:11:07;1.00;99.90
18797;DHT22;9526;52.612;13.300;2024-01-06T08:13:31;0.90;99.90
18797;DHT22;9526;52.612;13.300;2024-01-06T08:15:56;0.90;99.90
18797;DHT22;9526;52.612;13.300;2024-01-06T08:18:21;0.80;99.90
18797;DHT22;9526;52.612;13.300;2024-01-06T08:20:45;0.90;99.90
18797;DHT22;9526;52.612;13.300;2024-01-06T08:23:09;0.80;99.90
18797;DHT22;9526;52.612;13.300;2024-01-06T08:25:33;0.90;99.90
18797;DHT22;9526;52.612;13.300;2024-01-06T08:27:57;0.90;99.90
18797;DHT22;9526;52.612;13.300;2024-01-06T08:30:22;0.80;99.90
18797;DHT22;9526;52.612;13.300;2024-01-06T08:32:47;0.80;99.90
18797;DHT22;9526;52.612;13.300;2024-01-06T08:35:11;0.80;99.90
18797;DHT22;9526;52.612;13.300;2024-01-06T08:37:35;0.80;99.90
18797;DHT22;9526;52.612;13.300;2024-01-06T08:39:59;0.80;99.90
18797;DHT22;9526;52.612;13.300;2024-01-06T08:42:23;0.80;99.90
18797;DHT22;9526;52.612;13.300;2024-01-06T08:44:48;0.80;99.90
18797;DHT22;9526;52.612;13.300;2024-01-06T08:47:12;0.80;99.90
18797;DHT22;9526;52.612;13.300;2024-01-06T08:49:37;0.80;99.90
18797;DHT22;9526;52.612;13.300;2024-01-06T08:52:00;0.90;99.90
18797;DHT22;9526;52.612;13.300;2024-01-06T08:54:24;0.90;99.90
18797;DHT22;9526;52.612;13.300;2024-01-06T08:56:48;0.90;99.90
18797;DHT22;9526;52.612;13.300;2024-01-06T08:59:11;0.90;99.90
18797;DHT22;9526;52.612;13.300;2024-01-06T09:01:35;1.00;99.90
18797;DHT22;9526;52.612;13.300;2024-01-06T09:04:01;0.90;99.90
18797;DHT22;9526;52.612;13.300;2024-01-06T09:06:26;0.90;99.90
18797;DHT22;9526;52.612;13.300;2024-01-06T09:08:50;0.90;99.90
18797;DHT22;9526;52.612;13.300;2024-01-06T09:11:13;0.90;99.90
18797;DHT22;9526;52.612;13.300;2024-01-06T09:13:37;0.90;99.90
18797;DHT22;9526;52.612;13.300;2024-01-06T09:16:01;0.80;99.90
18797;DHT22;9526;52.612;13.300;2024-01-06T09:18:26;0.90;99.90
18797;DHT22;9526;52.612;13.300;2024-01-06T09:20:50;0.90;99.90
18797;DHT22;9526;52.612;13.300;2024-01-06T09:23:15;0.90;99.90
18797;DHT22;9526;52.612;13.300;2024-01-06T09:25:42;0.80;99.90
18797;DHT22;9526;52.612;13.300;2024-01-06T09:28:05;0.80;99.90
18797;DHT22;9526;52.612;13.300;2024-01-06T09:30:29;0.80;99.90
18797;DHT22;9526;52.612;13.300;2024-01-06T09:32:53;0.80;99.90
18797;DHT22;9526;52.612;13.300;2024-01-06T09:35:17;0.80;99.90
18797;DHT22;9526;52.612;13.300;2024-01-06T09:37:40;0.90;99.90
18797;DHT22;9526;52.612;13.300;2024-01-06T09:40:08;0.90;99.90
18797;DHT22;9526;52.612;13.300;2024-01-06T09:42:34;0.90;99.90
18797;DHT22;9526;52.612;13.300;2024-01-06T09:44:58;0.90;99.90
18797;DHT22;9526;52.612;13.300;2024-01-06T09:47:23;0.90;99.90
18797;DHT22;9526;52.612;13.300;2024-01-06T09:49:49;0.90;99.90
18797;DHT22;9526;52.612;13.300;2024-01-06T09:52:14;0.90;99.90
18797;DHT22;9526;52.612;13.300;2024-01-06T09:54:42;0.90;99.90
18797;DHT22;9526;52.612;13.300;2024-01-06T09:57:09;0.90;99.90
18797;DHT22;9526;52.612;13.300;2024-01-06T09:59:33;0.90;99.90
18797;DHT22;9526;52.612;13.300;2024-01-06T10:01:59;1.00;99.90
18797;DHT22;9526;52.612;13.300;2024-01-06T10:04:22;0.90;99.90
18797;DHT22;9526;52.612;13.300;2024-01-06T10:06:46;0.90;99.90
18797;DHT22;9526;52.612;13.300;2024-01-06T10:09:10;0.90;99.90
18797;DHT22;9526;52.612;13.300;2024-01-06T10:11:36;0.90;99.90
18797;DHT22;9526;52.612;13.300;2024-01-06T10:14:03;1.00;99.90
18797;DHT22;9526;52.612;13.300;2024-01-06T10:16:28;1.00;99.90
18797;DHT22;9526;52.612;13.300;2024-01-06T10:18:52;1.00;99.90
18797;DHT22;9526;52.612;13.300;2024-01-06T10:21:16;0.90;99.90
18797;DHT22;9526;52.612;13.300;2024-01-06T10:23:42;0.90;99.90
18797;DHT22;9526;52.612;13.300;2024-01-06T10:26:07;1.00;99.90
18797;DHT22;9526;52.612;13.300;2024-01-06T10:28:36;0.90;99.90
18797;DHT22;9526;52.612;13.300;2024-01-06T10:31:01;0.90;99.90
18797;DHT22;9526;52.612;13.300;2024-01-06T10:33:26;0.90;99.90
18797;DHT22;9526;52.612;13.300;2024-01-06T10:35:50;0.90;99.90
18797;DHT22;9526;52.612;13.300;2024-01-06T10:38:14;1.00;99.90
18797;DHT22;9526;52.612;13.300;2024-01-06T10:40:38;1.00;99.90
18797;DHT22;9526;52.612;13.300;2024-01-06T10:43:02;1.00;99.90
18797;DHT22;9526;52.612;13.300;2024-01-06T10:45:28;0.90;99.90
18797;DHT22;9526;52.612;13.300;2024-01-06T10:47:55;0.90;99.90
18797;DHT22;9526;52.612;13.300;2024-01-06T10:50:19;0.90;99.90
18797;DHT22;9526;52.612;13.300;2024-01-06T10:52:44;0.90;99.90
18797;DHT22;9526;52.612;13.300;2024-01-06T10:55:09;1.00;99.90
18797;DHT22;9526;52.612;13.300;2024-01-06T10:57:34;0.90;99.90
18797;DHT22;9526;52.612;13.300;2024-01-06T10:59:59;1.00;99.90
18797;DHT22;9526;52.612;13.300;2024-01-06T11:02:23;0.90;99.90
18797;DHT22;9526;52.612;13.300;2024-01-06T11:04:49;1.00;99.90
18797;DHT22;9526;52.612;13.300;2024-01-06T11:07:14;1.00;99.90
18797;DHT22;9526;52.612;13.300;2024-01-06T11:09:43;0.90;99.90
18797;DHT22;9526;52.612;13.300;2024-01-06T11:12:10;0.80;99.90
18797;DHT22;9526;52.612;13.300;2024-01-06T11:14:37;0.80;99.90
18797;DHT22;9526;52.612;13.300;2024-01-06T11:17:01;0.90;99.90
18797;DHT22;9526;52.612;13.300;2024-01-06T11:19:44;0.80;99.90
18797;DHT22;9526;52.612;13.300;2024-01-06T11:22:23;0.80;99.90
18797;DHT22;9526;52.612;13.300;2024-01-06T11:24:49;0.80;99.90
18797;DHT22;9526;52.612;13.300;2024-01-06T11:27:18;0.80;99.90
18797;DHT22;9526;52.612;13.300;2024-01-06T11:29:43;0.80;99.90
18797;DHT22;9526;52.612;13.300;2024-01-06T11:32:21;0.70;99.90
18797;DHT22;9526;52.612;13.300;2024-01-06T11:34:50;0.80;99.90
18797;DHT22;9526;52.612;13.300;2024-01-06T11:37:17;0.70;99.90
18797;DHT22;9526;52.612;13.300;2024-01-06T11:39:44;0.80;99.90
18797;DHT22;9526;52.612;13.300;2024-01-06T11:42:10;0.80;99.90
18797;DHT22;9526;52.612;13.300;2024-01-06T11:44:35;0.80;99.90
18797;DHT22;9526;52.612;13.300;2024-01-06T11:47:00;0.80;99.90
18797;DHT22;9526;52.612;13.300;2024-01-06T11:49:26;0.80;99.90
18797;DHT22;9526;52.612;13.300;2024-01-06T11:51:51;0.80;99.90
18797;DHT22;9526;52.612;13.300;2024-01-06T11:54:15;0.90;99.90
18797;DHT22;9526;52.612;13.300;2024-01-06T11:56:41;0.90;99.90
18797;DHT22;9526;52.612;13.300;2024-01-06T11:59:05;0.90;99.90
18797;DHT22;9526;52.612;13.300;2024-01-06T12:01:32;0.90;99.90
18797;DHT22;9526;52.612;13.300;2024-01-06T12:04:00;0.90;99.90
18797;DHT22;9526;52.612;13.300;2024-01-06T12:06:25;0.90;99.90
18797;DHT22;9526;52.612;13.300;2024-01-06T12:08:49;0.90;99.90
18797;DHT22;9526;52.612;13.300;2024-01-06T12:11:12;0.90;99.90
18797;DHT22;9526;52.612;13.300;2024-01-06T12:13:42;0.80;99.90
18797;DHT22;9526;52.612;13.300;2024-01-06T12:16:06;0.90;99.90
18797;DHT22;9526;52.612;13.300;2024-01-06T12:18:30;0.90;99.90
18797;DHT22;9526;52.612;13.300;2024-01-06T12:20:56;0.90;99.90
18797;DHT22;9526;52.612;13.300;2024-01-06T12:23:26;1.00;99.90
18797;DHT22;9526;52.612;13.300;2024-01-06T12:25:50;1.00;99.90
18797;DHT22;9526;52.612;13.300;2024-01-06T12:28:15;1.00;99.90
18797;DHT22;9526;52.612;13.300;2024-01-06T12:30:40;1.00;99.90
18797;DHT22;9526;52.612;13.300;2024-01-06T12:33:04;1.00;99.90
18797;DHT22;9526;52.612;13.300;2024-01-06T12:35:28;0.90;99.90
18797;DHT22;9526;52.612;13.300;2024-01-06T12:37:52;0.90;99.90
18797;DHT22;9526;52.612;13.300;2024-01-06T12:40:16;0.80;99.90
18797;DHT22;9526;52.612;13.300;2024-01-06T12:42:42;0.90;99.90
18797;DHT22;9526;52.612;13.300;2024-01-06T12:45:06;0.90;99.90
18797;DHT22;9526;52.612;13.300;2024-01-06T12:47:33;0.80;99.90
18797;DHT22;9526;52.612;13.300;2024-01-06T12:49:57;0.80;99.90
18797;DHT22;9526;52.612;13.300;2024-01-06T12:52:20;0.80;99.90
18797;DHT22;9526;52.612;13.300;2024-01-06T12:54:44;0.80;99.90
18797;DHT22;9526;52.612;13.300;2024-01-06T12:57:09;0.80;99.90
18797;DHT22;9526;52.612;13.300;2024-01-06T12:59:33;0.80;99.90
18797;DHT22;9526;52.612;13.300;2024-01-06T13:01:57;0.70;99.90
18797;DHT22;9526;52.612;13.300;2024-01-06T13:04:22;0.70;99.90
18797;DHT22;9526;52.612;13.300;2024-01-06T13:06:46;0.70;99.90
18797;DHT22;9526;52.612;13.300;2024-01-06T13:09:11;0.80;99.90
18797;DHT22;9526;52.612;13.300;2024-01-06T13:11:38;0.80;99.90
18797;DHT22;9526;52.612;13.300;2024-01-06T13:14:02;0.90;99.90
18797;DHT22;9526;52.612;13.300;2024-01-06T13:16:26;0.80;99.90
18797;DHT22;9526;52.612;13.300;2024-01-06T13:18:50;0.90;99.90
18797;DHT22;9526;52.612;13.300;2024-01-06T13:21:18;0.80;99.90
18797;DHT22;9526;52.612;13.300;2024-01-06T13:23:42;0.70;99.90
18797;DHT22;9526;52.612;13.300;2024-01-06T13:26:06;0.70;99.90
18797;DHT22;9526;52.612;13.300;2024-01-06T13:28:30;0.70;99.90
18797;DHT22;9526;52.612;13.300;2024-01-06T13:30:54;0.70;99.90
18797;DHT22;9526;52.612;13.300;2024-01-06T13:33:18;0.80;99.90
18797;DHT22;9526;52.612;13.300;2024-01-06T13:35:42;0.70;99.90
18797;DHT22;9526;52.612;13.300;2024-01-06T13:38:07;0.60;99.90
18797;DHT22;9526;52.612;13.300;2024-01-06T13:40:31;0.70;99.90
18797;DHT22;9526;52.612;13.300;2024-01-06T13:42:55;0.80;99.90
18797;DHT22;9526;52.612;13.300;2024-01-06T13:45:19;0.70;99.90
18797;DHT22;9526;52.612;13.300;2024-01-06T13:47:43;0.70;99.90
18797;DHT22;9526;52.612;13.300;2024-01-06T13:50:08;0.70;99.90
18797;DHT22;9526;52.612;13.300;2024-01-06T13:52:32;0.70;99.90
18797;DHT22;9526;52.612;13.300;2024-01-06T13:54:58;0.70;99.90
18797;DHT22;9526;52.612;13.300;2024-01-06T13:57:21;0.70;99.90
18797;DHT22;9526;52.612;13.300;2024-01-06T13:59:45;0.70;99.90
18797;DHT22;9526;52.612;13.300;2024-01-06T14:02:09;0.70;99.90
18797;DHT22;9526;52.612;13.300;2024-01-06T14:04:33;0.70;99.90
18797;DHT22;9526;52.612;13.300;2024-01-06T14:06:57;0.80;99.90
18797;DHT22;9526;52.612;13.300;2024-01-06T14:09:25;0.80;99.90
18797;DHT22;9526;52.612;13.300;2024-01-06T14:11:51;0.80;99.90
18797;DHT22;9526;52.612;13.300;2024-01-06T14:14:14;0.80;99.90
18797;DHT22;9526;52.612;13.300;2024-01-06T14:16:38;0.80;99.90
18797;DHT22;9526;52.612;13.300;2024-01-06T14:19:02;0.80;99.90
18797;DHT22;9526;52.612;13.300;2024-01-06T14:21:26;0.80;99.90
18797;DHT22;9526;52.612;13.300;2024-01-06T14:23:50;0.80;99.90
18797;DHT22;9526;52.612;13.300;2024-01-06T14:26:14;0.80;99.90
18797;DHT22;9526;52.612;13.300;2024-01-06T14:28:40;0.80;99.90
18797;DHT22;9526;52.612;13.300;2024-01-06T14:31:03;0.80;99.90
18797;DHT22;9526;52.612;13.300;2024-01-06T14:33:27;0.70;99.90
18797;DHT22;9526;52.612;13.300;2024-01-06T14:35:51;0.80;99.90
18797;DHT22;9526;52.612;13.300;2024-01-06T14:38:15;0.80;99.90
18797;DHT22;9526;52.612;13.300;2024-01-06T14:40:38;0.80;99.90
18797;DHT22;9526;52.612;13.300;2024-01-06T14:43:02;0.80;99.90
18797;DHT22;9526;52.612;13.300;2024-01-06T14:45:27;0.80;99.90
18797;DHT22;9526;52.612;13.300;2024-01-06T14:47:51;0.70;99.90
18797;DHT22;9526;52.612;13.300;2024-01-06T14:50:15;0.70;99.90
18797;DHT22;9526;52.612;13.300;2024-01-06T14:52:39;0.70;99.90
18797;DHT22;9526;52.612;13.300;2024-01-06T14:55:03;0.70;99.90
18797;DHT22;9526;52.612;13.300;2024-01-06T14:57:27;0.70;99.90
18797;DHT22;9526;52.612;13.300;2024-01-06T14:59:51;0.70;99.90
18797;DHT22;9526;52.612;13.300;2024-01-06T15:02:16;0.70;99.90
18797;DHT22;9526;52.612;13.300;2024-01-06T15:04:39;0.60;99.90
18797;DHT22;9526;52.612;13.300;2024-01-06T15:07:03;0.60;99.90
18797;DHT22;9526;52.612;13.300;2024-01-06T15:09:27;0.60;99.90
18797;DHT22;9526;52.612;13.300;2024-01-06T15:11:51;0.60;99.90
18797;DHT22;9526;52.612;13.300;2024-01-06T15:14:14;0.60;99.90
18797;DHT22;9526;52.612;13.300;2024-01-06T15:16:38;0.60;99.90
18797;DHT22;9526;52.612;13.300;2024-01-06T15:19:03;0.60;99.90
18797;DHT22;9526;52.612;13.300;2024-01-06T15:21:30;0.60;99.90
18797;DHT22;9526;52.612;13.300;2024-01-06T15:23:56;0.60;99.90
18797;DHT22;9526;52.612;13.300;2024-01-06T15:26:23;0.60;99.90